sensor_id;sensor_type;location;lat;lon;timestamp;pressure;altitude;pressure_sealevel;temperature;humidity
69971;BME280;57301;50.328;8.542;2023-05-01T00:02:03;98652.22;;;6.08;92.39
69971;BME280;57301;50.328;8.542;2023-05-01T00:04:34;98665.09;;;6.01;92.54
69971;BME280;57301;50.328;8.542;2023-05-01T00:07:01;98665.81;;;5.92;93.40
69971;BME280;57301;50.328;8.542;2023-05-01T00:09:28;98652.47;;;5.93;94.47
69971;BME280;57301;50.328;8.542;2023-05-01T00:11:54;98643.41;;;5.85;94.55
69971;BME280;57301;50.328;8.542;2023-05-01T00:14:20;98642.19;;;5.89;93.14
69971;BME280;57301;50.328;8.542;2023-05-01T00:16:47;98631.38;;;5.81;93.85
69971;BME280;57301;50.328;8.542;2023-05-01T00:19:14;98632.97;;;5.72;93.26
69971;BME280;57301;50.328;8.542;2023-05-01T00:21:45;98633.31;;;5.68;94.38
69971;BME280;57301;50.328;8.542;2023-05-01T00:24:12;98620.41;;;5.52;95.56
69971;BME280;57301;50.328;8.542;2023-05-01T00:26:38;98626.56;;;5.63;94.99
69971;BME280;57301;50.328;8.542;2023-05-01T00:29:05;98621.03;;;5.66;93.98
69971;BME280;57301;50.328;8.542;2023-05-01T00:31:32;98618.88;;;5.72;94.17
69971;BME280;57301;50.328;8.542;2023-05-01T00:33:59;98608.53;;;5.69;93.56
69971;BME280;57301;50.328;8.542;2023-05-01T00:36:25;98617.19;;;5.71;93.66
69971;BME280;57301;50.328;8.542;2023-05-01T00:38:51;98618.06;;;5.71;93.42
69971;BME280;57301;50.328;8.542;2023-05-01T00:41:18;98619.47;;;5.64;93.83
69971;BME280;57301;50.328;8.542;2023-05-01T00:43:44;98618.03;;;5.60;93.34
69971;BME280;57301;50.328;8.542;2023-05-01T00:46:11;98605.16;;;5.55;93.84
69971;BME280;57301;50.328;8.542;2023-05-01T00:48:38;98609.63;;;5.55;93.94
69971;BME280;57301;50.328;8.542;2023-05-01T00:51:06;98606.63;;;5.59;94.45
69971;BME280;57301;50.328;8.542;2023-05-01T00:53:33;98614.06;;;5.54;94.44
69971;BME280;57301;50.328;8.542;2023-05-01T00:56:00;98604.56;;;5.52;94.47
69971;BME280;57301;50.328;8.542;2023-05-01T00:58:28;98608.06;;;5.41;94.71
69971;BME280;57301;50.328;8.542;2023-05-01T01:00:55;98596.16;;;5.47;95.11
69971;BME280;57301;50.328;8.542;2023-05-01T01:03:22;98592.78;;;5.45;95.86
69971;BME280;57301;50.328;8.542;2023-05-01T01:05:53;98583.50;;;5.50;95.42
69971;BME280;57301;50.328;8.542;2023-05-01T01:08:39;98588.69;;;5.41;95.94
69971;BME280;57301;50.328;8.542;2023-05-01T01:11:29;98588.44;;;5.32;96.09
69971;BME280;57301;50.328;8.542;2023-05-01T01:14:07;98584.47;;;5.38;95.37
69971;BME280;57301;50.328;8.542;2023-05-01T01:16:56;98587.13;;;5.38;94.88
69971;BME280;57301;50.328;8.542;2023-05-01T01:22:16;98571.72;;;5.32;94.77
69971;BME280;57301;50.328;8.542;2023-05-01T01:36:21;98554.91;;;5.22;94.96
69971;BME280;57301;50.328;8.542;2023-05-01T01:39:19;98558.50;;;5.09;96.46
69971;BME280;57301;50.328;8.542;2023-05-01T01:41:50;98557.06;;;5.17;95.84
69971;BME280;57301;50.328;8.542;2023-05-01T01:44:38;98552.00;;;5.13;96.99
69971;BME280;57301;50.328;8.542;2023-05-01T01:47:10;98550.78;;;5.06;97.26
69971;BME280;57301;50.328;8.542;2023-05-01T01:49:40;98544.03;;;5.02;96.83
69971;BME280;57301;50.328;8.542;2023-05-01T01:52:09;98539.97;;;4.98;97.15
69971;BME280;57301;50.328;8.542;2023-05-01T01:54:42;98537.44;;;4.97;95.84
69971;BME280;57301;50.328;8.542;2023-05-01T01:57:11;98542.84;;;4.95;96.97
69971;BME280;57301;50.328;8.542;2023-05-01T01:59:40;98541.66;;;4.99;96.78
69971;BME280;57301;50.328;8.542;2023-05-01T02:02:08;98531.22;;;4.98;96.65
69971;BME280;57301;50.328;8.542;2023-05-01T02:04:38;98528.78;;;4.95;95.83
69971;BME280;57301;50.328;8.542;2023-05-01T02:07:07;98537.41;;;4.74;97.11
69971;BME280;57301;50.328;8.542;2023-05-01T02:09:37;98529.38;;;4.87;96.26
69971;BME280;57301;50.328;8.542;2023-05-01T02:12:05;98526.97;;;4.84;97.22
69971;BME280;57301;50.328;8.542;2023-05-01T02:14:34;98527.78;;;4.84;96.95
69971;BME280;57301;50.328;8.542;2023-05-01T02:17:01;98536.81;;;4.82;96.57
69971;BME280;57301;50.328;8.542;2023-05-01T02:19:28;98520.13;;;4.81;95.94
69971;BME280;57301;50.328;8.542;2023-05-01T02:21:58;98527.56;;;4.88;96.36
69971;BME280;57301;50.328;8.542;2023-05-01T02:24:27;98517.72;;;4.90;96.36
69971;BME280;57301;50.328;8.542;2023-05-01T02:26:56;98520.97;;;4.82;96.34
69971;BME280;57301;50.328;8.542;2023-05-01T02:29:24;98526.13;;;4.83;96.55
69971;BME280;57301;50.328;8.542;2023-05-01T02:31:52;98529.22;;;4.77;96.55
69971;BME280;57301;50.328;8.542;2023-05-01T02:34:18;98522.63;;;4.83;96.39
69971;BME280;57301;50.328;8.542;2023-05-01T02:36:45;98528.63;;;4.74;97.08
69971;BME280;57301;50.328;8.542;2023-05-01T02:39:11;98521.78;;;4.71;97.32
69971;BME280;57301;50.328;8.542;2023-05-01T02:41:39;98508.69;;;4.70;97.35
69971;BME280;57301;50.328;8.542;2023-05-01T02:44:09;98516.56;;;4.58;98.08
69971;BME280;57301;50.328;8.542;2023-05-01T02:46:36;98515.16;;;4.66;98.50
69971;BME280;57301;50.328;8.542;2023-05-01T02:49:04;98505.31;;;4.68;97.88
69971;BME280;57301;50.328;8.542;2023-05-01T02:51:31;98515.44;;;4.74;98.43
69971;BME280;57301;50.328;8.542;2023-05-01T02:53:58;98513.16;;;4.80;97.54
69971;BME280;57301;50.328;8.542;2023-05-01T02:56:25;98510.50;;;4.80;98.70
69971;BME280;57301;50.328;8.542;2023-05-01T02:58:53;98506.66;;;4.84;97.84
69971;BME280;57301;50.328;8.542;2023-05-01T03:01:20;98505.22;;;4.80;97.91
69971;BME280;57301;50.328;8.542;2023-05-01T03:03:47;98505.81;;;4.84;97.94
69971;BME280;57301;50.328;8.542;2023-05-01T03:06:13;98497.91;;;4.84;98.11
69971;BME280;57301;50.328;8.542;2023-05-01T03:08:40;98500.06;;;4.79;97.39
69971;BME280;57301;50.328;8.542;2023-05-01T03:11:07;98497.31;;;4.80;98.43
69971;BME280;57301;50.328;8.542;2023-05-01T03:13:34;98495.38;;;4.82;98.12
69971;BME280;57301;50.328;8.542;2023-05-01T03:16:01;98501.38;;;4.84;98.08
69971;BME280;57301;50.328;8.542;2023-05-01T03:18:29;98488.06;;;4.86;97.95
69971;BME280;57301;50.328;8.542;2023-05-01T03:20:56;98490.09;;;4.82;98.03
69971;BME280;57301;50.328;8.542;2023-05-01T03:23:22;98483.50;;;4.88;98.40
69971;BME280;57301;50.328;8.542;2023-05-01T03:25:49;98485.78;;;4.81;98.40
69971;BME280;57301;50.328;8.542;2023-05-01T03:28:16;98494.66;;;4.80;99.46
69971;BME280;57301;50.328;8.542;2023-05-01T03:30:44;98486.97;;;4.77;99.63
69971;BME280;57301;50.328;8.542;2023-05-01T03:33:10;98488.06;;;4.86;99.14
69971;BME280;57301;50.328;8.542;2023-05-01T03:35:37;98485.66;;;4.94;98.65
69971;BME280;57301;50.328;8.542;2023-05-01T03:38:04;98484.22;;;5.01;98.35
69971;BME280;57301;50.328;8.542;2023-05-01T03:40:31;98480.03;;;4.99;99.12
69971;BME280;57301;50.328;8.542;2023-05-01T03:42:57;98479.28;;;4.97;99.51
69971;BME280;57301;50.328;8.542;2023-05-01T03:45:24;98481.72;;;5.00;98.46
69971;BME280;57301;50.328;8.542;2023-05-01T03:47:51;98475.72;;;4.98;99.03
69971;BME280;57301;50.328;8.542;2023-05-01T03:50:18;98476.06;;;4.93;99.22
69971;BME280;57301;50.328;8.542;2023-05-01T03:52:44;98483.03;;;4.94;99.09
69971;BME280;57301;50.328;8.542;2023-05-01T03:55:11;98472.47;;;4.94;98.85
69971;BME280;57301;50.328;8.542;2023-05-01T03:57:37;98472.59;;;5.04;98.82
69971;BME280;57301;50.328;8.542;2023-05-01T04:00:04;98466.69;;;5.00;98.73
69971;BME280;57301;50.328;8.542;2023-05-01T04:02:32;98469.22;;;5.02;99.04
69971;BME280;57301;50.328;8.542;2023-05-01T04:04:58;98474.50;;;5.02;98.56
69971;BME280;57301;50.328;8.542;2023-05-01T04:07:26;98469.97;;;5.04;99.24
69971;BME280;57301;50.328;8.542;2023-05-01T04:09:52;98469.69;;;5.07;99.27
69971;BME280;57301;50.328;8.542;2023-05-01T04:12:19;98466.34;;;5.16;98.31
69971;BME280;57301;50.328;8.542;2023-05-01T04:14:45;98466.59;;;5.24;98.27
69971;BME280;57301;50.328;8.542;2023-05-01T04:17:12;98472.09;;;5.32;98.80
69971;BME280;57301;50.328;8.542;2023-05-01T04:19:38;98464.91;;;5.34;98.03
69971;BME280;57301;50.328;8.542;2023-05-01T04:22:06;98473.91;;;5.32;98.08
69971;BME280;57301;50.328;8.542;2023-05-01T04:24:32;98467.91;;;5.30;98.72
69971;BME280;57301;50.328;8.542;2023-05-01T04:26:59;98468.63;;;5.32;98.82
69971;BME280;57301;50.328;8.542;2023-05-01T04:29:25;98474.63;;;5.34;98.89
69971;BME280;57301;50.328;8.542;2023-05-01T04:31:52;98469.81;;;5.28;98.73
69971;BME280;57301;50.328;8.542;2023-05-01T04:34:19;98471.38;;;5.30;99.03
69971;BME280;57301;50.328;8.542;2023-05-01T04:36:45;98471.38;;;5.42;98.42
69971;BME280;57301;50.328;8.542;2023-05-01T04:39:12;98471.47;;;5.40;98.92
69971;BME280;57301;50.328;8.542;2023-05-01T04:41:38;98463.31;;;5.43;98.55
69971;BME280;57301;50.328;8.542;2023-05-01T04:44:05;98464.75;;;5.47;99.00
69971;BME280;57301;50.328;8.542;2023-05-01T04:46:31;98465.47;;;5.49;98.57
69971;BME280;57301;50.328;8.542;2023-05-01T04:48:58;98465.47;;;5.38;99.25
69971;BME280;57301;50.328;8.542;2023-05-01T04:51:25;98463.94;;;5.47;99.84
69971;BME280;57301;50.328;8.542;2023-05-01T04:53:53;98466.44;;;5.48;99.37
69971;BME280;57301;50.328;8.542;2023-05-01T04:56:20;98461.50;;;5.55;98.85
69971;BME280;57301;50.328;8.542;2023-05-01T04:58:47;98463.78;;;5.59;98.73
69971;BME280;57301;50.328;8.542;2023-05-01T05:01:13;98460.50;;;5.78;97.86
69971;BME280;57301;50.328;8.542;2023-05-01T05:03:40;98463.50;;;5.74;98.48
69971;BME280;57301;50.328;8.542;2023-05-01T05:06:07;98465.88;;;5.77;97.38
69971;BME280;57301;50.328;8.542;2023-05-01T05:08:33;98455.91;;;5.80;97.18
69971;BME280;57301;50.328;8.542;2023-05-01T05:11:00;98462.88;;;5.81;97.88
69971;BME280;57301;50.328;8.542;2023-05-01T05:13:27;98464.06;;;6.00;96.56
69971;BME280;57301;50.328;8.542;2023-05-01T05:15:54;98457.28;;;6.07;96.69
69971;BME280;57301;50.328;8.542;2023-05-01T05:18:20;98465.13;;;6.08;96.49
69971;BME280;57301;50.328;8.542;2023-05-01T05:20:47;98456.88;;;6.23;95.70
69971;BME280;57301;50.328;8.542;2023-05-01T05:23:14;98458.81;;;6.21;95.70
69971;BME280;57301;50.328;8.542;2023-05-01T05:25:41;98460.78;;;6.39;94.86
69971;BME280;57301;50.328;8.542;2023-05-01T05:28:07;98451.47;;;6.45;95.05
69971;BME280;57301;50.328;8.542;2023-05-01T05:30:34;98460.56;;;6.52;94.60
69971;BME280;57301;50.328;8.542;2023-05-01T05:33:01;98462.44;;;6.61;94.64
69971;BME280;57301;50.328;8.542;2023-05-01T05:35:28;98454.88;;;6.78;93.75
69971;BME280;57301;50.328;8.542;2023-05-01T05:37:55;98448.78;;;6.87;93.68
69971;BME280;57301;50.328;8.542;2023-05-01T05:40:21;98452.78;;;7.12;91.60
69971;BME280;57301;50.328;8.542;2023-05-01T05:42:48;98452.78;;;7.42;91.06
69971;BME280;57301;50.328;8.542;2023-05-01T05:45:14;98453.41;;;7.65;89.83
69971;BME280;57301;50.328;8.542;2023-05-01T05:47:41;98452.34;;;7.97;88.27
69971;BME280;57301;50.328;8.542;2023-05-01T05:50:07;98449.97;;;8.13;87.81
69971;BME280;57301;50.328;8.542;2023-05-01T05:52:35;98451.66;;;8.14;86.80
69971;BME280;57301;50.328;8.542;2023-05-01T05:55:01;98445.63;;;8.22;86.43
69971;BME280;57301;50.328;8.542;2023-05-01T05:57:28;98453.22;;;8.17;86.78
69971;BME280;57301;50.328;8.542;2023-05-01T05:59:55;98448.88;;;8.35;85.67
69971;BME280;57301;50.328;8.542;2023-05-01T06:02:23;98440.75;;;8.46;86.08
69971;BME280;57301;50.328;8.542;2023-05-01T06:04:49;98443.47;;;8.83;85.30
69971;BME280;57301;50.328;8.542;2023-05-01T06:07:16;98449.94;;;8.91;85.25
69971;BME280;57301;50.328;8.542;2023-05-01T06:09:43;98446.44;;;8.90;84.81
69971;BME280;57301;50.328;8.542;2023-05-01T06:12:09;98436.31;;;9.31;82.39
69971;BME280;57301;50.328;8.542;2023-05-01T06:14:35;98441.88;;;9.10;83.48
69971;BME280;57301;50.328;8.542;2023-05-01T06:17:02;98434.34;;;9.33;83.10
69971;BME280;57301;50.328;8.542;2023-05-01T06:19:28;98430.50;;;9.45;82.97
69971;BME280;57301;50.328;8.542;2023-05-01T06:21:55;98423.66;;;9.42;83.60
69971;BME280;57301;50.328;8.542;2023-05-01T06:24:21;98424.50;;;9.88;81.06
69971;BME280;57301;50.328;8.542;2023-05-01T06:26:48;98421.25;;;9.94;81.59
69971;BME280;57301;50.328;8.542;2023-05-01T06:29:14;98424.75;;;9.95;79.19
69971;BME280;57301;50.328;8.542;2023-05-01T06:31:41;98415.44;;;10.17;78.85
69971;BME280;57301;50.328;8.542;2023-05-01T06:34:08;98419.72;;;10.45;77.94
69971;BME280;57301;50.328;8.542;2023-05-01T06:36:34;98415.56;;;10.25;77.89
69971;BME280;57301;50.328;8.542;2023-05-01T06:39:01;98413.75;;;10.52;77.84
69971;BME280;57301;50.328;8.542;2023-05-01T06:41:27;98415.38;;;10.44;78.54
69971;BME280;57301;50.328;8.542;2023-05-01T06:43:54;98413.94;;;10.76;76.39
69971;BME280;57301;50.328;8.542;2023-05-01T06:46:21;98413.44;;;11.07;73.20
69971;BME280;57301;50.328;8.542;2023-05-01T06:48:47;98417.94;;;11.40;72.29
69971;BME280;57301;50.328;8.542;2023-05-01T06:51:14;98414.44;;;11.90;70.22
69971;BME280;57301;50.328;8.542;2023-05-01T06:53:41;98420.88;;;12.46;68.12
69971;BME280;57301;50.328;8.542;2023-05-01T06:56:07;98409.31;;;12.62;68.12
69971;BME280;57301;50.328;8.542;2023-05-01T06:58:34;98408.44;;;12.70;67.92
69971;BME280;57301;50.328;8.542;2023-05-01T07:01:00;98418.00;;;12.72;67.72
69971;BME280;57301;50.328;8.542;2023-05-01T07:03:27;98407.63;;;12.77;67.03
69971;BME280;57301;50.328;8.542;2023-05-01T07:05:54;98403.56;;;12.98;65.30
69971;BME280;57301;50.328;8.542;2023-05-01T07:08:21;98413.88;;;13.17;66.32
69971;BME280;57301;50.328;8.542;2023-05-01T07:10:47;98399.28;;;13.19;65.95
69971;BME280;57301;50.328;8.542;2023-05-01T07:13:15;98402.53;;;12.99;63.96
69971;BME280;57301;50.328;8.542;2023-05-01T07:15:42;98396.41;;;13.37;62.36
69971;BME280;57301;50.328;8.542;2023-05-01T07:18:09;98394.75;;;13.76;58.71
69971;BME280;57301;50.328;8.542;2023-05-01T07:20:37;98387.81;;;14.12;60.26
69971;BME280;57301;50.328;8.542;2023-05-01T07:23:03;98386.41;;;14.39;57.82
69971;BME280;57301;50.328;8.542;2023-05-01T07:25:33;98389.53;;;14.51;58.16
69971;BME280;57301;50.328;8.542;2023-05-01T07:27:59;98378.66;;;14.82;56.43
69971;BME280;57301;50.328;8.542;2023-05-01T07:30:28;98378.47;;;14.84;55.81
69971;BME280;57301;50.328;8.542;2023-05-01T07:32:55;98381.00;;;16.02;53.33
69971;BME280;57301;50.328;8.542;2023-05-01T07:35:25;98382.25;;;15.63;53.15
69971;BME280;57301;50.328;8.542;2023-05-01T07:37:51;98380.19;;;16.01;51.52
69971;BME280;57301;50.328;8.542;2023-05-01T07:40:18;98376.63;;;16.65;52.21
69971;BME280;57301;50.328;8.542;2023-05-01T07:42:44;98377.34;;;15.67;52.22
69971;BME280;57301;50.328;8.542;2023-05-01T07:45:11;98370.72;;;15.84;52.37
69971;BME280;57301;50.328;8.542;2023-05-01T07:47:38;98370.72;;;15.84;52.89
69971;BME280;57301;50.328;8.542;2023-05-01T07:50:09;98376.88;;;15.99;51.98
69971;BME280;57301;50.328;8.542;2023-05-01T07:52:37;98374.31;;;16.12;52.16
69971;BME280;57301;50.328;8.542;2023-05-01T07:55:04;98371.78;;;16.54;52.34
69971;BME280;57301;50.328;8.542;2023-05-01T07:57:31;98370.59;;;15.92;54.29
69971;BME280;57301;50.328;8.542;2023-05-01T08:00:00;98372.34;;;16.21;54.01
69971;BME280;57301;50.328;8.542;2023-05-01T08:02:27;98372.84;;;16.81;52.98
69971;BME280;57301;50.328;8.542;2023-05-01T08:04:53;98365.09;;;16.99;51.41
69971;BME280;57301;50.328;8.542;2023-05-01T08:07:20;98365.47;;;16.68;51.64
69971;BME280;57301;50.328;8.542;2023-05-01T08:09:47;98365.63;;;15.74;49.21
69971;BME280;57301;50.328;8.542;2023-05-01T08:12:13;98375.13;;;15.41;48.92
69971;BME280;57301;50.328;8.542;2023-05-01T08:14:40;98372.31;;;15.64;48.86
69971;BME280;57301;50.328;8.542;2023-05-01T08:17:06;98369.41;;;15.80;49.02
69971;BME280;57301;50.328;8.542;2023-05-01T08:19:33;98363.00;;;15.81;48.32
69971;BME280;57301;50.328;8.542;2023-05-01T08:22:00;98372.94;;;16.02;49.22
69971;BME280;57301;50.328;8.542;2023-05-01T08:24:26;98371.91;;;15.81;47.62
69971;BME280;57301;50.328;8.542;2023-05-01T08:26:53;98370.28;;;16.23;46.49
69971;BME280;57301;50.328;8.542;2023-05-01T08:29:19;98363.41;;;17.33;47.30
69971;BME280;57301;50.328;8.542;2023-05-01T08:31:46;98356.34;;;17.80;45.31
69971;BME280;57301;50.328;8.542;2023-05-01T08:34:12;98364.50;;;17.04;44.30
69971;BME280;57301;50.328;8.542;2023-05-01T08:36:39;98360.97;;;17.38;45.08
69971;BME280;57301;50.328;8.542;2023-05-01T08:39:05;98362.59;;;17.80;45.24
69971;BME280;57301;50.328;8.542;2023-05-01T08:41:33;98365.06;;;17.75;42.41
69971;BME280;57301;50.328;8.542;2023-05-01T08:44:01;98348.81;;;17.62;45.09
69971;BME280;57301;50.328;8.542;2023-05-01T08:49:01;98357.56;;;17.70;44.74
69971;BME280;57301;50.328;8.542;2023-05-01T08:51:31;98345.47;;;17.60;44.31
69971;BME280;57301;50.328;8.542;2023-05-01T08:54:00;98348.94;;;17.40;44.64
69971;BME280;57301;50.328;8.542;2023-05-01T08:56:29;98355.25;;;16.85;43.96
69971;BME280;57301;50.328;8.542;2023-05-01T08:58:57;98344.59;;;16.49;46.01
69971;BME280;57301;50.328;8.542;2023-05-01T09:01:27;98348.81;;;16.79;44.99
69971;BME280;57301;50.328;8.542;2023-05-01T09:03:55;98351.13;;;16.11;45.74
69971;BME280;57301;50.328;8.542;2023-05-01T09:06:24;98352.28;;;16.02;47.11
69971;BME280;57301;50.328;8.542;2023-05-01T09:08:53;98338.44;;;16.27;46.35
69971;BME280;57301;50.328;8.542;2023-05-01T09:11:23;98340.34;;;16.61;46.80
69971;BME280;57301;50.328;8.542;2023-05-01T09:13:51;98338.94;;;16.65;45.42
69971;BME280;57301;50.328;8.542;2023-05-01T09:16:19;98334.66;;;17.46;46.83
69971;BME280;57301;50.328;8.542;2023-05-01T09:18:46;98331.09;;;17.39;45.75
69971;BME280;57301;50.328;8.542;2023-05-01T09:21:13;98332.41;;;17.09;43.60
69971;BME280;57301;50.328;8.542;2023-05-01T09:23:39;98338.97;;;17.00;44.97
69971;BME280;57301;50.328;8.542;2023-05-01T09:26:06;98330.78;;;17.14;43.68
69971;BME280;57301;50.328;8.542;2023-05-01T09:28:44;98325.56;;;17.67;45.81
69971;BME280;57301;50.328;8.542;2023-05-01T09:31:26;98336.47;;;17.87;44.66
69971;BME280;57301;50.328;8.542;2023-05-01T09:34:00;98328.56;;;17.86;43.58
69971;BME280;57301;50.328;8.542;2023-05-01T09:36:28;98326.31;;;18.03;41.20
69971;BME280;57301;50.328;8.542;2023-05-01T09:38:56;98325.66;;;17.81;42.27
69971;BME280;57301;50.328;8.542;2023-05-01T09:41:23;98332.13;;;17.86;43.64
69971;BME280;57301;50.328;8.542;2023-05-01T09:43:51;98321.94;;;17.82;43.42
69971;BME280;57301;50.328;8.542;2023-05-01T09:46:18;98330.59;;;17.23;43.14
69971;BME280;57301;50.328;8.542;2023-05-01T09:48:56;98325.44;;;16.86;43.88
69971;BME280;57301;50.328;8.542;2023-05-01T09:51:28;98322.78;;;17.34;44.40
69971;BME280;57301;50.328;8.542;2023-05-01T09:53:57;98314.69;;;17.34;43.41
69971;BME280;57301;50.328;8.542;2023-05-01T09:56:32;98320.22;;;17.13;45.11
69971;BME280;57301;50.328;8.542;2023-05-01T09:59:19;98314.16;;;17.11;44.03
69971;BME280;57301;50.328;8.542;2023-05-01T10:01:46;98316.41;;;17.49;45.31
69971;BME280;57301;50.328;8.542;2023-05-01T10:04:28;98317.38;;;17.82;45.40
69971;BME280;57301;50.328;8.542;2023-05-01T10:06:55;98310.97;;;18.76;43.91
69971;BME280;57301;50.328;8.542;2023-05-01T10:09:28;98316.16;;;18.51;42.26
69971;BME280;57301;50.328;8.542;2023-05-01T10:11:55;98305.56;;;18.76;42.01
69971;BME280;57301;50.328;8.542;2023-05-01T10:14:23;98314.09;;;18.66;42.26
69971;BME280;57301;50.328;8.542;2023-05-01T10:16:50;98306.59;;;18.35;40.35
69971;BME280;57301;50.328;8.542;2023-05-01T10:19:18;98314.09;;;18.79;41.31
69971;BME280;57301;50.328;8.542;2023-05-01T10:21:45;98311.03;;;19.79;41.31
69971;BME280;57301;50.328;8.542;2023-05-01T10:24:12;98306.63;;;19.84;39.53
69971;BME280;57301;50.328;8.542;2023-05-01T10:26:40;98306.16;;;18.98;38.66
69971;BME280;57301;50.328;8.542;2023-05-01T10:29:08;98305.84;;;19.19;39.05
69971;BME280;57301;50.328;8.542;2023-05-01T10:31:34;98307.63;;;19.45;40.24
69971;BME280;57301;50.328;8.542;2023-05-01T10:34:01;98298.69;;;18.53;40.21
69971;BME280;57301;50.328;8.542;2023-05-01T10:39:04;98301.28;;;19.20;39.63
69971;BME280;57301;50.328;8.542;2023-05-01T10:44:26;98295.34;;;18.98;40.88
69971;BME280;57301;50.328;8.542;2023-05-01T10:46:53;98291.00;;;18.64;40.63
69971;BME280;57301;50.328;8.542;2023-05-01T10:49:21;98295.19;;;18.20;41.24
69971;BME280;57301;50.328;8.542;2023-05-01T10:54:26;98285.09;;;19.96;39.57
69971;BME280;57301;50.328;8.542;2023-05-01T10:56:54;98284.09;;;19.91;39.47
69971;BME280;57301;50.328;8.542;2023-05-01T10:59:21;98280.41;;;20.35;40.75
69971;BME280;57301;50.328;8.542;2023-05-01T11:01:48;98275.53;;;19.94;39.45
69971;BME280;57301;50.328;8.542;2023-05-01T11:09:53;98271.19;;;20.18;38.90
69971;BME280;57301;50.328;8.542;2023-05-01T11:15:24;98277.63;;;19.15;40.44
69971;BME280;57301;50.328;8.542;2023-05-01T11:17:51;98276.81;;;19.59;39.21
69971;BME280;57301;50.328;8.542;2023-05-01T11:22:52;98275.28;;;19.19;39.66
69971;BME280;57301;50.328;8.542;2023-05-01T11:25:29;98273.72;;;18.98;40.06
69971;BME280;57301;50.328;8.542;2023-05-01T11:27:57;98268.53;;;18.83;40.11
69971;BME280;57301;50.328;8.542;2023-05-01T11:30:24;98276.25;;;18.86;40.99
69971;BME280;57301;50.328;8.542;2023-05-01T11:32:51;98269.44;;;19.28;40.27
69971;BME280;57301;50.328;8.542;2023-05-01T11:35:21;98265.78;;;19.10;40.13
69971;BME280;57301;50.328;8.542;2023-05-01T11:37:48;98268.16;;;18.60;41.19
69971;BME280;57301;50.328;8.542;2023-05-01T11:40:24;98265.91;;;18.43;41.76
69971;BME280;57301;50.328;8.542;2023-05-01T11:43:01;98267.78;;;18.43;42.01
69971;BME280;57301;50.328;8.542;2023-05-01T11:45:29;98265.06;;;18.16;43.25
69971;BME280;57301;50.328;8.542;2023-05-01T11:47:56;98269.66;;;18.22;44.42
69971;BME280;57301;50.328;8.542;2023-05-01T11:50:34;98266.13;;;17.95;43.58
69971;BME280;57301;50.328;8.542;2023-05-01T11:53:11;98265.41;;;17.67;43.46
69971;BME280;57301;50.328;8.542;2023-05-01T11:55:39;98257.47;;;17.32;43.16
69971;BME280;57301;50.328;8.542;2023-05-01T11:58:06;98256.97;;;17.77;43.26
69971;BME280;57301;50.328;8.542;2023-05-01T12:00:37;98254.63;;;17.67;44.35
69971;BME280;57301;50.328;8.542;2023-05-01T12:03:09;98258.13;;;17.54;44.05
69971;BME280;57301;50.328;8.542;2023-05-01T12:05:41;98255.16;;;17.29;43.98
69971;BME280;57301;50.328;8.542;2023-05-01T12:08:19;98253.78;;;17.46;43.95
69971;BME280;57301;50.328;8.542;2023-05-01T12:10:55;98257.53;;;17.65;45.70
69971;BME280;57301;50.328;8.542;2023-05-01T12:13:23;98257.84;;;17.29;45.55
69971;BME280;57301;50.328;8.542;2023-05-01T12:15:55;98257.50;;;17.45;43.17
69971;BME280;57301;50.328;8.542;2023-05-01T12:18:22;98262.41;;;17.29;44.39
69971;BME280;57301;50.328;8.542;2023-05-01T12:20:51;98265.31;;;17.21;45.49
69971;BME280;57301;50.328;8.542;2023-05-01T12:23:40;98267.03;;;16.59;46.13
69971;BME280;57301;50.328;8.542;2023-05-01T12:26:16;98266.03;;;16.95;45.78
69971;BME280;57301;50.328;8.542;2023-05-01T12:31:24;98276.09;;;16.79;45.31
69971;BME280;57301;50.328;8.542;2023-05-01T12:34:07;98270.09;;;16.77;46.08
69971;BME280;57301;50.328;8.542;2023-05-01T12:36:34;98265.56;;;16.84;46.91
69971;BME280;57301;50.328;8.542;2023-05-01T12:39:05;98269.28;;;16.83;46.24
69971;BME280;57301;50.328;8.542;2023-05-01T12:41:45;98270.59;;;16.66;46.94
69971;BME280;57301;50.328;8.542;2023-05-01T12:44:26;98274.47;;;16.57;47.76
69971;BME280;57301;50.328;8.542;2023-05-01T12:49:30;98269.25;;;16.49;46.36
69971;BME280;57301;50.328;8.542;2023-05-01T12:52:04;98271.25;;;16.40;46.47
69971;BME280;57301;50.328;8.542;2023-05-01T12:54:33;98270.72;;;16.51;46.96
69971;BME280;57301;50.328;8.542;2023-05-01T12:57:11;98264.09;;;16.54;45.79
69971;BME280;57301;50.328;8.542;2023-05-01T12:59:41;98266.50;;;16.42;46.38
69971;BME280;57301;50.328;8.542;2023-05-01T13:02:10;98254.50;;;16.45;46.13
69971;BME280;57301;50.328;8.542;2023-05-01T13:04:38;98266.22;;;16.30;47.75
69971;BME280;57301;50.328;8.542;2023-05-01T13:07:15;98271.88;;;16.42;47.53
69971;BME280;57301;50.328;8.542;2023-05-01T13:10:11;98268.50;;;16.61;47.78
69971;BME280;57301;50.328;8.542;2023-05-01T13:12:44;98259.88;;;16.45;47.85
69971;BME280;57301;50.328;8.542;2023-05-01T13:15:19;98262.75;;;16.36;47.95
69971;BME280;57301;50.328;8.542;2023-05-01T13:17:46;98259.06;;;16.44;47.64
69971;BME280;57301;50.328;8.542;2023-05-01T13:20:13;98257.66;;;16.48;46.39
69971;BME280;57301;50.328;8.542;2023-05-01T13:22:40;98254.31;;;16.46;47.59
69971;BME280;57301;50.328;8.542;2023-05-01T13:25:18;98258.28;;;16.78;46.96
69971;BME280;57301;50.328;8.542;2023-05-01T13:27:51;98256.16;;;18.16;43.87
69971;BME280;57301;50.328;8.542;2023-05-01T13:30:20;98249.41;;;20.31;39.14
69971;BME280;57301;50.328;8.542;2023-05-01T13:32:55;98248.41;;;20.75;39.17
69971;BME280;57301;50.328;8.542;2023-05-01T13:35:23;98251.00;;;19.89;39.65
69971;BME280;57301;50.328;8.542;2023-05-01T13:37:50;98242.69;;;19.52;41.40
69971;BME280;57301;50.328;8.542;2023-05-01T13:40:18;98241.97;;;18.80;41.92
69971;BME280;57301;50.328;8.542;2023-05-01T13:42:45;98249.91;;;18.29;41.89
69971;BME280;57301;50.328;8.542;2023-05-01T13:45:17;98243.72;;;18.08;42.40
69971;BME280;57301;50.328;8.542;2023-05-01T13:47:44;98245.78;;;17.99;42.40
69971;BME280;57301;50.328;8.542;2023-05-01T13:50:14;98237.28;;;17.83;45.31
69971;BME280;57301;50.328;8.542;2023-05-01T13:52:44;98241.94;;;17.48;43.04
69971;BME280;57301;50.328;8.542;2023-05-01T13:55:15;98243.16;;;17.25;43.62